Terminal Aerodrome Forecast
Issued by NWS

Home | Current Version | Previous Version | Text Only | Print | Product List | Glossary On
Versions: 1 2 3 4 5 6 7 8 9 10 11 12 13 14 15 16 17 18 19
000
FTUS45 KGJT 250542 AAB
TAFCNY
TAF AMD
KCNY 250542Z 2506/2606 35008KT P6SM SCT060 BKN090
      TEMPO 2506/2508 BKN060
     FM250800 36007KT P6SM SCT090
     FM251200 VRB04KT P6SM SKC
     FM252200 32006KT P6SM SKC=

USA.gov is the U.S. government's official web portal to all federal, state and local government web resources and services.